Time;durP1;ratioP1;P1;durP2;ratioP2;P2;SDS_P1;SDS_P2;PMS_P1;PMS_P2;Temp;Humidity;BMP_temperature;BMP_pressure;BME280_temperature;BME280_humidity;BME280_pressure;Samples;Min_cycle;Max_cycle;Signal;HPM_P1;HPM_P2
2023/12/08 00:01:00;;;;;;;15.07;13.87;;;2.50;99.90;;;;;;5046334;28;20834;-80
2023/12/08 00:03:28;;;;;;;15.13;13.97;;;2.50;99.90;;;;;;5052383;28;20609;-80
2023/12/08 00:05:57;;;;;;;15.23;14.13;;;2.50;99.90;;;;;;5044016;28;20601;-81
2023/12/08 00:08:24;;;;;;;16.07;14.87;;;2.50;99.90;;;;;;5036510;28;20214;-80
2023/12/08 00:10:50;;;;;;;15.50;14.40;;;2.50;99.90;;;;;;5029734;28;20195;-80
2023/12/08 00:13:17;;;;;;;16.27;14.97;;;2.50;99.90;;;;;;5048403;28;20264;-81
2023/12/08 00:15:44;;;;;;;16.20;14.90;;;2.50;99.90;;;;;;5045558;28;20220;-81
2023/12/08 00:18:11;;;;;;;16.07;14.87;;;2.50;99.90;;;;;;5051424;28;20199;-80
2023/12/08 00:20:43;;;;;;;16.30;15.20;;;2.60;99.90;;;;;;5034337;28;20627;-80
2023/12/08 00:23:12;;;;;;;15.47;14.47;;;2.60;99.90;;;;;;5057520;28;20215;-80
2023/12/08 00:25:43;;;;;;;15.93;14.70;;;2.60;99.90;;;;;;5029129;28;20227;-82
2023/12/08 00:28:10;;;;;;;15.90;14.73;;;2.60;99.90;;;;;;5044389;28;20196;-82
2023/12/08 00:30:37;;;;;;;17.23;15.93;;;2.60;99.90;;;;;;5040999;28;20230;-81
2023/12/08 00:33:06;;;;;;;16.70;15.43;;;2.60;99.90;;;;;;5046138;28;20249;-80
2023/12/08 00:35:34;;;;;;;16.30;15.03;;;2.60;99.90;;;;;;5040443;28;20233;-80
2023/12/08 00:38:02;;;;;;;15.73;14.63;;;2.60;99.90;;;;;;5035596;28;20687;-81
2023/12/08 00:40:31;;;;;;;15.47;14.37;;;2.60;99.90;;;;;;5036091;28;20583;-80
2023/12/08 00:42:58;;;;;;;16.00;14.80;;;2.60;99.90;;;;;;5037878;28;20265;-79
2023/12/08 00:45:26;;;;;;;16.47;14.97;;;2.60;99.90;;;;;;5047519;28;20262;-81
2023/12/08 00:47:53;;;;;;;15.10;14.00;;;2.60;99.90;;;;;;5031086;28;20206;-80
2023/12/08 00:50:24;;;;;;;15.93;14.37;;;2.70;99.90;;;;;;5038483;28;20209;-81
2023/12/08 00:52:51;;;;;;;16.03;14.87;;;2.60;99.90;;;;;;5045936;28;20248;-80
2023/12/08 00:55:19;;;;;;;16.00;14.63;;;2.70;99.90;;;;;;5017902;28;20705;-81
2023/12/08 00:57:49;;;;;;;17.17;15.77;;;2.70;99.90;;;;;;5062938;28;20198;-81
2023/12/08 01:00:17;;;;;;;15.27;14.27;;;2.70;99.90;;;;;;5032804;28;20199;-80
2023/12/08 01:02:46;;;;;;;15.43;14.33;;;2.70;99.90;;;;;;5034202;28;20229;-81
2023/12/08 01:05:13;;;;;;;16.23;14.93;;;2.70;99.90;;;;;;5039042;28;20228;-80
2023/12/08 01:07:40;;;;;;;15.87;14.57;;;2.60;99.90;;;;;;5035415;28;20237;-81
2023/12/08 01:10:09;;;;;;;17.10;15.70;;;2.70;99.90;;;;;;5054486;28;20658;-81
2023/12/08 01:12:40;;;;;;;16.37;15.07;;;2.70;99.90;;;;;;5060506;28;20201;-81
2023/12/08 01:15:08;;;;;;;15.70;14.53;;;2.70;99.90;;;;;;5043361;28;20234;-81
2023/12/08 01:17:35;;;;;;;15.70;14.50;;;2.80;99.90;;;;;;5042025;28;20205;-79
2023/12/08 01:20:02;;;;;;;15.33;14.30;;;2.80;99.90;;;;;;5053690;28;20231;-80
2023/12/08 01:22:28;;;;;;;15.47;14.37;;;2.80;99.90;;;;;;5064945;28;20299;-80
2023/12/08 01:24:55;;;;;;;15.20;14.10;;;2.90;99.90;;;;;;5048854;28;20227;-79
2023/12/08 01:27:23;;;;;;;14.57;13.57;;;2.90;99.90;;;;;;5047929;28;20268;-80
2023/12/08 01:29:53;;;;;;;14.90;13.80;;;2.90;99.90;;;;;;5030218;28;20203;-81
2023/12/08 01:32:25;;;;;;;15.80;14.60;;;2.90;99.90;;;;;;5034406;28;20195;-81
2023/12/08 01:34:52;;;;;;;14.83;13.83;;;2.80;99.90;;;;;;5050121;28;20215;-81
2023/12/08 01:37:19;;;;;;;15.60;14.50;;;2.80;99.90;;;;;;5041789;28;20190;-80
2023/12/08 01:39:46;;;;;;;16.27;15.07;;;2.70;99.90;;;;;;5043300;28;20191;-81
2023/12/08 01:42:15;;;;;;;16.00;14.80;;;2.60;99.90;;;;;;5044510;28;20219;-81
2023/12/08 01:44:44;;;;;;;16.23;15.13;;;2.60;99.90;;;;;;5032241;28;20223;-81
2023/12/08 01:47:15;;;;;;;17.17;15.77;;;2.60;99.90;;;;;;5037570;28;20195;-80
2023/12/08 01:49:42;;;;;;;17.63;16.13;;;2.50;99.90;;;;;;5057699;28;20213;-82
2023/12/08 01:52:10;;;;;;;17.33;15.93;;;2.50;99.90;;;;;;5044466;28;20666;-79
2023/12/08 01:54:37;;;;;;;17.13;15.73;;;2.50;99.90;;;;;;5046154;28;20769;-81
2023/12/08 01:57:04;;;;;;;17.17;15.77;;;2.40;99.90;;;;;;5034614;28;20583;-80
2023/12/08 01:59:33;;;;;;;16.97;15.50;;;2.40;99.90;;;;;;5036626;28;20294;-81
2023/12/08 02:02:00;;;;;;;16.30;14.93;;;2.40;99.90;;;;;;5058457;28;20310;-80
2023/12/08 02:04:29;;;;;;;16.10;14.90;;;2.40;99.90;;;;;;5070314;28;20222;-81
2023/12/08 02:06:56;;;;;;;17.70;16.30;;;2.40;99.90;;;;;;5025386;28;20204;-81
2023/12/08 02:09:23;;;;;;;17.97;16.60;;;2.50;99.90;;;;;;5065661;28;20199;-81
2023/12/08 02:11:54;;;;;;;17.43;15.93;;;2.50;99.90;;;;;;5055012;28;20270;-80
2023/12/08 02:14:21;;;;;;;18.40;16.80;;;2.50;99.90;;;;;;5041486;28;20246;-81
2023/12/08 02:16:54;;;;;;;18.10;16.40;;;2.40;99.90;;;;;;5043866;28;20210;-81
2023/12/08 02:19:21;;;;;;;18.40;16.90;;;2.40;99.90;;;;;;5037960;28;20203;-81
2023/12/08 02:21:50;;;;;;;18.10;16.70;;;2.40;99.90;;;;;;5034023;28;20212;-81
2023/12/08 02:24:20;;;;;;;19.20;17.43;;;2.40;99.90;;;;;;5053930;28;20238;-80
2023/12/08 02:26:48;;;;;;;18.43;16.73;;;2.30;99.90;;;;;;5031515;28;20243;-80
2023/12/08 02:29:15;;;;;;;18.60;17.00;;;2.30;99.90;;;;;;5052721;28;20741;-80
2023/12/08 02:31:45;;;;;;;18.40;17.00;;;2.30;99.90;;;;;;5041340;28;20253;-81
2023/12/08 02:34:15;;;;;;;19.00;17.10;;;2.30;99.90;;;;;;5047872;28;20298;-79
2023/12/08 02:36:43;;;;;;;18.50;16.93;;;2.30;99.90;;;;;;5048279;28;20198;-80
2023/12/08 02:39:12;;;;;;;19.20;17.53;;;2.30;99.90;;;;;;5051257;28;20245;-80
2023/12/08 02:41:48;;;;;;;18.17;16.70;;;2.30;99.90;;;;;;5051622;28;20217;-80
2023/12/08 02:44:17;;;;;;;18.77;17.27;;;2.20;99.90;;;;;;5034204;28;20223;-80
2023/12/08 02:46:44;;;;;;;19.63;18.03;;;2.20;99.90;;;;;;5054290;28;20214;-79
2023/12/08 02:49:11;;;;;;;19.57;17.80;;;2.30;99.90;;;;;;5059098;28;20213;-80
2023/12/08 02:51:37;;;;;;;19.67;17.97;;;2.20;99.90;;;;;;5039671;28;20198;-80
2023/12/08 02:54:04;;;;;;;19.47;17.83;;;2.20;99.90;;;;;;5049252;28;20224;-79
2023/12/08 02:56:31;;;;;;;18.73;17.13;;;2.20;99.90;;;;;;5046623;28;20199;-80
2023/12/08 02:59:02;;;;;;;19.67;17.87;;;2.20;99.90;;;;;;5033689;28;20612;-80
2023/12/08 03:01:29;;;;;;;19.90;18.10;;;2.20;99.90;;;;;;5068378;28;20203;-80
2023/12/08 03:03:56;;;;;;;19.43;17.73;;;2.20;99.90;;;;;;5049728;28;20707;-79
2023/12/08 03:06:23;;;;;;;19.47;17.70;;;2.30;99.90;;;;;;5017596;28;20588;-80
2023/12/08 03:08:52;;;;;;;19.30;17.70;;;2.30;99.90;;;;;;5040383;28;20725;-80
2023/12/08 03:11:19;;;;;;;18.93;17.33;;;2.30;99.90;;;;;;5049644;28;20630;-80
2023/12/08 03:13:46;;;;;;;20.40;18.60;;;2.30;99.90;;;;;;5041468;28;20198;-80
2023/12/08 03:16:16;;;;;;;18.90;17.40;;;2.20;99.90;;;;;;5048226;28;20196;-79
2023/12/08 03:18:45;;;;;;;20.57;18.87;;;2.30;99.90;;;;;;5051690;28;20199;-79
2023/12/08 03:21:21;;;;;;;20.33;18.77;;;2.20;99.90;;;;;;5059520;28;20212;-80
2023/12/08 03:23:48;;;;;;;20.33;18.53;;;2.30;99.90;;;;;;5035596;28;20230;-79
2023/12/08 03:26:17;;;;;;;20.93;19.20;;;2.30;99.90;;;;;;5044105;28;20244;-80
2023/12/08 03:28:44;;;;;;;20.90;19.17;;;2.30;99.90;;;;;;5038082;28;20206;-80
2023/12/08 03:31:22;;;;;;;20.50;18.70;;;2.20;99.90;;;;;;5044062;28;20257;-80
2023/12/08 03:33:49;;;;;;;19.30;17.70;;;2.20;99.90;;;;;;5049363;28;20191;-79
2023/12/08 03:36:16;;;;;;;19.77;18.10;;;2.30;99.90;;;;;;5058395;28;20720;-79
2023/12/08 03:38:43;;;;;;;20.23;18.53;;;2.20;99.90;;;;;;5065236;28;20236;-80
2023/12/08 03:41:11;;;;;;;19.60;18.00;;;2.20;99.90;;;;;;5035824;28;20203;-80
2023/12/08 03:43:37;;;;;;;20.93;19.07;;;2.20;99.90;;;;;;5036511;28;20215;-78
2023/12/08 03:46:05;;;;;;;19.20;17.70;;;2.20;99.90;;;;;;5035050;28;20230;-79
2023/12/08 03:48:35;;;;;;;19.27;17.67;;;2.20;99.90;;;;;;5047066;28;20206;-78
2023/12/08 03:51:02;;;;;;;20.03;18.33;;;2.30;99.90;;;;;;5058461;28;20223;-77
2023/12/08 03:53:28;;;;;;;19.30;17.63;;;2.20;99.90;;;;;;5034561;28;20211;-80
2023/12/08 03:55:55;;;;;;;19.70;18.10;;;2.20;99.90;;;;;;5057452;28;20243;-81
2023/12/08 03:58:22;;;;;;;19.90;18.30;;;2.20;99.90;;;;;;5033607;28;20665;-84
2023/12/08 04:00:53;;;;;;;19.70;18.10;;;2.20;99.90;;;;;;5044067;28;20202;-81
2023/12/08 04:03:30;;;;;;;19.33;17.83;;;2.30;99.90;;;;;;5057071;28;20702;-80
2023/12/08 04:06:18;;;;;;;18.90;17.30;;;2.30;99.90;;;;;;5031370;28;20629;-82
2023/12/08 04:08:45;;;;;;;18.83;17.00;;;2.30;99.90;;;;;;5023748;28;20200;-82
2023/12/08 04:11:12;;;;;;;18.83;17.27;;;2.30;99.90;;;;;;5040399;28;20658;-82
2023/12/08 04:13:39;;;;;;;19.17;17.57;;;2.20;99.90;;;;;;5056898;28;20438;-82
2023/12/08 04:16:33;;;;;;;18.40;16.80;;;2.20;99.90;;;;;;5035132;28;20261;-83
2023/12/08 04:19:24;;;;;;;19.03;17.43;;;2.20;99.90;;;;;;5033831;28;20707;-80
2023/12/08 04:21:52;;;;;;;19.90;18.20;;;2.20;99.90;;;;;;5044338;28;20210;-80
2023/12/08 04:24:25;;;;;;;19.53;17.87;;;2.20;99.90;;;;;;5055470;28;20605;-81
2023/12/08 04:27:01;;;;;;;17.63;16.33;;;2.20;99.90;;;;;;5034970;28;20194;-82
2023/12/08 04:36:41;;;;;;;18.00;16.60;;;2.40;99.90;;;;;;5002230;28;20178;-82
2023/12/08 04:44:13;;;;;;;;;;;;;;;;;;;;;
2023/12/08 04:54:56;;;;;;;18.33;16.83;;;2.50;99.90;;;;;;4844511;29;20696;-78
2023/12/08 04:57:23;;;;;;;18.37;16.87;;;2.50;99.90;;;;;;4932181;28;20207;-77
2023/12/08 04:59:50;;;;;;;18.40;17.08;;;2.40;99.90;;;;;;5049663;28;20436;-78
2023/12/08 05:02:17;;;;;;;17.80;16.37;;;2.50;99.90;;;;;;5030776;28;20230;-77
2023/12/08 05:04:44;;;;;;;17.67;16.27;;;2.50;99.90;;;;;;5033864;28;20258;-77
2023/12/08 05:07:10;;;;;;;18.13;16.53;;;2.50;99.90;;;;;;5032414;28;20732;-78
2023/12/08 05:09:37;;;;;;;17.57;16.23;;;2.50;99.90;;;;;;5047436;28;20191;-78
2023/12/08 05:12:06;;;;;;;17.80;16.30;;;2.50;99.90;;;;;;5034217;28;20203;-78
2023/12/08 05:14:33;;;;;;;17.63;16.20;;;2.50;99.90;;;;;;5068251;28;20216;-78
2023/12/08 05:16:59;;;;;;;17.87;16.17;;;2.50;99.90;;;;;;5055507;28;20633;-78
2023/12/08 05:19:26;;;;;;;18.30;16.80;;;2.50;99.90;;;;;;5037231;28;20268;-77
2023/12/08 05:21:53;;;;;;;18.60;17.10;;;2.50;99.90;;;;;;5049638;28;20192;-78
2023/12/08 05:24:20;;;;;;;19.17;17.57;;;2.50;99.90;;;;;;5048010;28;20227;-78
2023/12/08 05:26:47;;;;;;;20.17;18.27;;;2.50;99.90;;;;;;5048278;28;20192;-78
2023/12/08 05:29:15;;;;;;;18.03;16.53;;;2.40;99.90;;;;;;5034255;28;20191;-77
2023/12/08 05:31:42;;;;;;;20.03;18.07;;;2.50;99.90;;;;;;5057485;28;20246;-78
2023/12/08 05:34:09;;;;;;;19.80;18.10;;;2.50;99.90;;;;;;5055126;28;20207;-78
2023/12/08 05:36:35;;;;;;;19.03;17.53;;;2.40;99.90;;;;;;5035269;28;20203;-80
2023/12/08 05:39:03;;;;;;;19.17;17.57;;;2.50;99.90;;;;;;5053842;28;20592;-79
2023/12/08 05:41:30;;;;;;;18.80;17.30;;;2.50;99.90;;;;;;5054897;28;20202;-76
2023/12/08 05:43:57;;;;;;;18.13;16.73;;;2.50;99.90;;;;;;5032915;28;20293;-77
2023/12/08 05:46:25;;;;;;;18.20;16.80;;;2.50;99.90;;;;;;5044236;28;20195;-76
2023/12/08 05:48:52;;;;;;;20.50;18.60;;;2.50;99.90;;;;;;5036400;28;20650;-76
2023/12/08 05:51:18;;;;;;;19.40;17.80;;;2.50;99.90;;;;;;5047184;28;20683;-78
2023/12/08 05:53:45;;;;;;;18.50;17.03;;;2.50;99.90;;;;;;5028545;28;20261;-78
2023/12/08 05:56:12;;;;;;;18.47;17.00;;;2.50;99.90;;;;;;5036867;28;20249;-78
2023/12/08 05:58:39;;;;;;;19.30;17.80;;;2.50;99.90;;;;;;5053686;28;20262;-78
2023/12/08 06:01:06;;;;;;;21.10;19.17;;;2.50;99.90;;;;;;5049932;28;20204;-78
2023/12/08 06:03:34;;;;;;;19.90;18.30;;;2.40;99.90;;;;;;5049667;28;20219;-79
2023/12/08 06:06:01;;;;;;;20.80;18.90;;;2.40;99.90;;;;;;5030249;28;20226;-78
2023/12/08 06:08:28;;;;;;;19.70;18.10;;;2.30;99.90;;;;;;5051608;28;20199;-78
2023/12/08 06:10:55;;;;;;;19.27;17.77;;;2.30;99.90;;;;;;5050937;28;20196;-78
2023/12/08 06:13:22;;;;;;;19.40;17.77;;;2.40;99.90;;;;;;5032067;28;20204;-79
2023/12/08 06:15:48;;;;;;;19.43;17.93;;;2.40;99.90;;;;;;5035765;28;20224;-79
2023/12/08 06:18:15;;;;;;;20.10;18.50;;;2.40;99.90;;;;;;5034288;28;20203;-78
2023/12/08 06:20:43;;;;;;;19.00;17.40;;;2.40;99.90;;;;;;5055817;28;20191;-79
2023/12/08 06:23:10;;;;;;;20.50;18.70;;;2.40;99.90;;;;;;5052961;28;20207;-79
2023/12/08 06:25:37;;;;;;;19.87;18.27;;;2.40;99.90;;;;;;5051275;28;20216;-80
2023/12/08 06:28:05;;;;;;;19.60;18.00;;;2.40;99.90;;;;;;5038104;28;20203;-79
2023/12/08 06:30:32;;;;;;;22.40;20.43;;;2.40;99.90;;;;;;5031040;28;20256;-79
2023/12/08 06:32:59;;;;;;;21.77;19.77;;;2.40;99.90;;;;;;5037947;28;20195;-79
2023/12/08 06:35:25;;;;;;;20.77;18.97;;;2.40;99.90;;;;;;5054508;28;20273;-79
2023/12/08 06:37:54;;;;;;;19.93;18.27;;;2.40;99.90;;;;;;5039728;28;20203;-79
2023/12/08 06:40:20;;;;;;;20.93;19.07;;;2.40;99.90;;;;;;5075953;28;20231;-79
2023/12/08 06:42:47;;;;;;;20.63;18.73;;;2.40;99.90;;;;;;5068590;28;20203;-79
2023/12/08 06:45:14;;;;;;;22.33;20.13;;;2.40;99.90;;;;;;5052189;28;20212;-79
2023/12/08 06:47:41;;;;;;;22.93;20.87;;;2.40;99.90;;;;;;5054959;28;20195;-79
2023/12/08 06:50:08;;;;;;;22.40;20.40;;;2.40;99.90;;;;;;5038062;28;20191;-79
2023/12/08 06:52:35;;;;;;;22.93;20.87;;;2.40;99.90;;;;;;5041054;28;20676;-79
2023/12/08 06:55:03;;;;;;;22.50;20.37;;;2.40;99.90;;;;;;5033888;28;20216;-79
2023/12/08 06:57:30;;;;;;;21.83;19.93;;;2.40;99.90;;;;;;5028784;28;20203;-77
2023/12/08 06:59:57;;;;;;;22.20;20.37;;;2.40;99.90;;;;;;5050582;28;20252;-79
2023/12/08 07:02:24;;;;;;;21.90;20.07;;;2.40;99.90;;;;;;5049264;28;20577;-79
2023/12/08 07:04:50;;;;;;;23.83;21.53;;;2.40;99.90;;;;;;5071759;28;20763;-79
2023/12/08 07:07:17;;;;;;;21.70;19.80;;;2.50;99.90;;;;;;5035972;28;20642;-80
2023/12/08 07:09:44;;;;;;;22.40;20.50;;;2.50;99.90;;;;;;5029659;28;20195;-80
2023/12/08 07:12:12;;;;;;;22.37;20.40;;;2.50;99.90;;;;;;5029846;28;20196;-80
2023/12/08 07:14:39;;;;;;;21.80;19.83;;;2.50;99.90;;;;;;5028291;28;20301;-79
2023/12/08 07:17:06;;;;;;;22.23;20.27;;;2.50;99.90;;;;;;5058051;28;20195;-78
2023/12/08 07:19:32;;;;;;;21.50;19.67;;;2.50;99.90;;;;;;5030846;28;20211;-79
2023/12/08 07:21:59;;;;;;;22.27;20.13;;;2.50;99.90;;;;;;5051385;28;20225;-78
2023/12/08 07:24:27;;;;;;;22.70;20.50;;;2.50;99.90;;;;;;5030585;28;20230;-79
2023/12/08 07:26:54;;;;;;;23.53;21.30;;;2.50;99.90;;;;;;5051430;28;20209;-78
2023/12/08 07:29:23;;;;;;;21.87;19.77;;;2.50;99.90;;;;;;5031112;28;20592;-78
2023/12/08 07:31:50;;;;;;;22.63;20.47;;;2.60;99.90;;;;;;5029573;28;20202;-78
2023/12/08 07:34:17;;;;;;;23.67;21.17;;;2.60;99.90;;;;;;5036643;28;20285;-79
2023/12/08 07:36:44;;;;;;;21.67;19.97;;;2.60;99.90;;;;;;5063033;28;20252;-79
2023/12/08 07:39:11;;;;;;;21.17;19.40;;;2.70;99.90;;;;;;5062826;28;20192;-78
2023/12/08 07:41:38;;;;;;;21.73;19.73;;;2.70;99.90;;;;;;5048090;28;20203;-78
2023/12/08 07:44:05;;;;;;;20.67;18.87;;;2.70;99.90;;;;;;5032645;28;20756;-78
2023/12/08 07:54:21;;;;;;;20.73;19.00;;;2.70;99.90;;;;;;4947448;28;20244;-79
2023/12/08 07:56:48;;;;;;;20.77;19.17;;;2.80;99.90;;;;;;4998079;28;20671;-77
2023/12/08 07:59:15;;;;;;;21.27;19.37;;;2.80;99.90;;;;;;5007957;28;20254;-76
2023/12/08 08:01:43;;;;;;;21.57;19.63;;;2.80;99.90;;;;;;5045366;28;20208;-77
2023/12/08 08:04:10;;;;;;;21.30;19.40;;;2.80;99.90;;;;;;5044700;28;20216;-77
2023/12/08 08:06:36;;;;;;;22.67;20.67;;;2.80;99.90;;;;;;5028687;28;20253;-77
2023/12/08 08:09:04;;;;;;;20.57;18.90;;;2.80;99.90;;;;;;5033576;28;20199;-77
2023/12/08 08:11:31;;;;;;;21.57;19.77;;;2.80;99.90;;;;;;5031585;28;20246;-78
2023/12/08 08:13:58;;;;;;;21.47;19.57;;;2.80;99.90;;;;;;5046673;28;20192;-77
2023/12/08 08:16:25;;;;;;;20.63;18.87;;;2.80;99.90;;;;;;5046591;28;20199;-77
2023/12/08 08:18:53;;;;;;;24.38;22.30;;;2.90;99.90;;;;;;5026397;28;20553;-77
2023/12/08 08:21:20;;;;;;;24.15;22.30;;;2.90;99.90;;;;;;5033943;28;20447;-77
2023/12/08 08:23:46;;;;;;;23.27;21.27;;;2.90;99.90;;;;;;5035171;28;20310;-77
2023/12/08 08:26:14;;;;;;;23.10;21.10;;;3.00;99.90;;;;;;5034984;28;20192;-77
2023/12/08 08:28:40;;;;;;;24.77;22.57;;;3.00;99.90;;;;;;5035314;28;20199;-80
2023/12/08 08:31:07;;;;;;;24.07;21.97;;;3.00;99.90;;;;;;5027608;28;20221;-79
2023/12/08 08:33:34;;;;;;;23.90;21.70;;;3.10;99.90;;;;;;5057528;28;20206;-79
2023/12/08 08:36:04;;;;;;;23.50;21.30;;;3.10;99.90;;;;;;5044613;28;20280;-79
2023/12/08 08:38:30;;;;;;;24.37;22.27;;;3.10;99.90;;;;;;5033040;28;20214;-78
2023/12/08 08:40:57;;;;;;;23.27;21.37;;;3.10;99.90;;;;;;5034204;28;20600;-78
2023/12/08 08:43:24;;;;;;;22.33;20.53;;;3.20;99.90;;;;;;5048595;28;20191;-77
2023/12/08 08:45:51;;;;;;;24.10;21.90;;;3.20;99.90;;;;;;5055454;28;20214;-76
2023/12/08 08:48:17;;;;;;;23.53;21.67;;;3.30;99.90;;;;;;5028134;28;20253;-76
2023/12/08 08:50:44;;;;;;;23.50;21.70;;;3.30;99.90;;;;;;5053357;28;20253;-76
2023/12/08 08:53:12;;;;;;;22.33;20.43;;;3.30;99.90;;;;;;5035998;28;20196;-77
2023/12/08 08:55:39;;;;;;;22.20;20.40;;;3.40;99.90;;;;;;5031003;28;20269;-76
2023/12/08 08:58:07;;;;;;;21.77;19.97;;;3.50;99.90;;;;;;5051328;28;20187;-77
2023/12/08 09:00:34;;;;;;;22.63;20.57;;;3.60;99.90;;;;;;5050109;28;20226;-78
2023/12/08 09:03:01;;;;;;;22.00;20.20;;;3.70;99.90;;;;;;5049581;28;20204;-76
2023/12/08 09:05:30;;;;;;;21.33;19.47;;;3.70;99.90;;;;;;5032263;28;20223;-77
2023/12/08 09:07:57;;;;;;;22.73;20.83;;;3.80;99.90;;;;;;5037304;28;20242;-77
2023/12/08 09:10:25;;;;;;;23.10;21.30;;;3.80;99.90;;;;;;5033959;28;20203;-77
2023/12/08 09:12:52;;;;;;;21.47;19.73;;;3.90;99.90;;;;;;5030017;28;20261;-77
2023/12/08 09:15:19;;;;;;;21.97;20.20;;;3.90;99.90;;;;;;5030083;28;20265;-77
2023/12/08 09:17:45;;;;;;;21.13;19.43;;;3.90;99.90;;;;;;5046789;28;20204;-78
2023/12/08 09:20:14;;;;;;;20.70;19.13;;;4.00;99.90;;;;;;5031543;28;20250;-77
2023/12/08 09:22:41;;;;;;;21.10;19.47;;;4.10;99.90;;;;;;5030699;28;20239;-77
2023/12/08 09:25:08;;;;;;;20.53;19.03;;;4.10;99.90;;;;;;5027397;28;20228;-78
2023/12/08 09:27:37;;;;;;;19.53;17.93;;;4.20;99.90;;;;;;5051946;28;20205;-77
2023/12/08 09:30:05;;;;;;;20.13;18.53;;;4.30;99.90;;;;;;5056354;28;20191;-78
2023/12/08 09:32:32;;;;;;;19.20;17.80;;;4.40;99.90;;;;;;5054501;28;20233;-76
2023/12/08 09:34:59;;;;;;;18.53;17.13;;;4.50;99.90;;;;;;5062525;28;20219;-77
2023/12/08 09:37:25;;;;;;;18.13;16.83;;;4.60;99.90;;;;;;5034317;28;20265;-76
2023/12/08 09:39:52;;;;;;;18.00;16.60;;;4.70;99.90;;;;;;5046144;28;20195;-76
2023/12/08 09:42:27;;;;;;;18.23;16.93;;;4.70;99.90;;;;;;5027214;28;20208;-77
2023/12/08 09:44:56;;;;;;;18.23;16.83;;;4.80;99.90;;;;;;5034136;28;20282;-76
2023/12/08 09:47:27;;;;;;;18.50;17.20;;;4.80;99.90;;;;;;5028651;28;20223;-77
2023/12/08 09:49:56;;;;;;;18.83;17.43;;;4.90;99.90;;;;;;5032515;28;20195;-77
2023/12/08 09:52:23;;;;;;;18.93;17.53;;;5.00;99.90;;;;;;5031805;28;20201;-77
2023/12/08 09:54:50;;;;;;;19.23;17.83;;;5.00;99.90;;;;;;5051264;28;20255;-77
2023/12/08 09:57:19;;;;;;;18.80;17.40;;;5.00;99.90;;;;;;5031949;28;20859;-79
2023/12/08 09:59:48;;;;;;;18.27;16.97;;;5.10;99.90;;;;;;5053262;28;20234;-79
2023/12/08 10:09:17;;;;;;;17.30;16.10;;;5.20;99.90;;;;;;4997855;28;20725;-77
2023/12/08 10:11:44;;;;;;;19.43;18.00;;;5.20;99.90;;;;;;5052242;28;20200;-80
2023/12/08 10:14:13;;;;;;;19.03;17.67;;;5.10;99.90;;;;;;5048185;28;20750;-80
2023/12/08 10:16:39;;;;;;;18.70;17.40;;;5.10;99.90;;;;;;5047560;28;20205;-77
2023/12/08 10:19:09;;;;;;;18.80;17.30;;;5.10;99.90;;;;;;5034413;28;20201;-77
2023/12/08 10:21:36;;;;;;;19.27;17.80;;;5.10;99.90;;;;;;5050690;28;20678;-77
2023/12/08 10:24:04;;;;;;;18.60;17.30;;;5.10;99.90;;;;;;5049702;28;20283;-77
2023/12/08 10:26:32;;;;;;;19.07;17.67;;;5.10;99.90;;;;;;5031720;28;20212;-77
2023/12/08 10:29:00;;;;;;;19.20;17.80;;;5.10;99.90;;;;;;5038467;28;20343;-78
2023/12/08 10:31:28;;;;;;;19.07;17.70;;;5.20;99.90;;;;;;5036250;28;20299;-77
2023/12/08 10:33:56;;;;;;;18.80;17.40;;;5.20;99.90;;;;;;5053480;28;20200;-77
2023/12/08 10:36:24;;;;;;;19.90;18.40;;;5.20;99.90;;;;;;5045015;28;20201;-77
2023/12/08 10:38:52;;;;;;;19.83;18.43;;;5.30;99.90;;;;;;5035592;28;20734;-81
2023/12/08 10:41:22;;;;;;;20.57;19.03;;;5.30;99.90;;;;;;5035752;28;20251;-78
2023/12/08 10:43:49;;;;;;;20.33;18.83;;;5.30;99.90;;;;;;5044003;28;20195;-78
2023/12/08 10:46:16;;;;;;;19.83;18.33;;;5.30;99.90;;;;;;5051270;28;20195;-78
2023/12/08 10:48:47;;;;;;;19.33;17.90;;;5.30;99.90;;;;;;5033818;28;20587;-79
2023/12/08 10:51:16;;;;;;;20.97;19.43;;;5.40;99.90;;;;;;5044581;28;20202;-77
2023/12/08 10:53:45;;;;;;;21.27;19.57;;;5.40;99.90;;;;;;5031935;28;20195;-76
2023/12/08 10:56:16;;;;;;;20.53;19.03;;;5.40;99.90;;;;;;5039142;28;20202;-77
2023/12/08 10:58:46;;;;;;;19.77;18.37;;;5.50;99.90;;;;;;5026441;28;20203;-77
2023/12/08 11:01:15;;;;;;;20.20;18.67;;;5.50;99.90;;;;;;5027906;28;20472;-77
2023/12/08 11:03:43;;;;;;;20.73;19.30;;;5.60;99.90;;;;;;5049525;28;20577;-77
2023/12/08 11:06:15;;;;;;;19.90;18.47;;;5.70;99.90;;;;;;5045239;28;20221;-77
2023/12/08 11:08:51;;;;;;;20.87;19.37;;;5.70;99.90;;;;;;5045807;28;20277;-77
2023/12/08 11:11:18;;;;;;;20.33;18.87;;;5.70;99.90;;;;;;5029593;28;20789;-77
2023/12/08 11:13:50;;;;;;;19.13;17.83;;;5.80;99.90;;;;;;5025118;28;20232;-77
2023/12/08 11:16:28;;;;;;;20.37;18.97;;;5.90;99.90;;;;;;5046143;28;20188;-77
2023/12/08 11:18:56;;;;;;;19.70;18.30;;;6.00;99.90;;;;;;5047342;28;20198;-77
2023/12/08 11:21:23;;;;;;;19.77;18.37;;;6.10;99.90;;;;;;5047160;28;20202;-77
2023/12/08 11:23:52;;;;;;;19.87;18.47;;;6.10;99.90;;;;;;5035689;28;20578;-77
2023/12/08 11:26:25;;;;;;;19.30;17.90;;;6.20;99.90;;;;;;5045772;28;20218;-77
2023/12/08 11:29:02;;;;;;;20.57;19.03;;;6.20;99.90;;;;;;5060965;28;20198;-77
2023/12/08 11:31:35;;;;;;;20.90;19.30;;;6.30;99.90;;;;;;5034980;28;20289;-78
2023/12/08 11:34:07;;;;;;;19.73;18.33;;;6.30;99.90;;;;;;5035223;28;20252;-77
2023/12/08 11:36:34;;;;;;;18.60;17.40;;;6.40;99.90;;;;;;5030049;28;20207;-77
2023/12/08 11:39:42;;;;;;;20.27;18.70;;;6.40;99.90;;;;;;5034136;28;20277;-78
2023/12/08 11:42:10;;;;;;;18.67;17.37;;;6.40;99.90;;;;;;5031914;28;20316;-77
2023/12/08 11:44:38;;;;;;;19.23;17.93;;;6.50;99.90;;;;;;5045219;28;20227;-76
2023/12/08 11:47:07;;;;;;;18.80;17.50;;;6.50;99.90;;;;;;5051281;28;20210;-77
2023/12/08 11:49:36;;;;;;;19.03;17.73;;;6.50;99.90;;;;;;5047900;28;20280;-77
2023/12/08 11:52:10;;;;;;;18.50;17.20;;;6.50;99.90;;;;;;5052651;28;20210;-77
2023/12/08 11:55:07;;;;;;;17.73;16.63;;;6.50;99.90;;;;;;5052723;28;20297;-78
2023/12/08 11:57:39;;;;;;;20.57;19.17;;;6.50;99.90;;;;;;5045225;28;20637;-78
2023/12/08 12:00:10;;;;;;;20.23;18.83;;;6.50;99.90;;;;;;5044723;28;20210;-77
2023/12/08 12:02:38;;;;;;;21.40;19.80;;;6.50;99.90;;;;;;5063233;28;20702;-78
2023/12/08 12:05:05;;;;;;;21.20;19.60;;;6.50;99.90;;;;;;5044340;28;20215;-77
2023/12/08 12:07:33;;;;;;;22.47;20.67;;;6.50;99.90;;;;;;5032640;28;20260;-76
2023/12/08 12:10:02;;;;;;;21.20;19.53;;;6.50;99.90;;;;;;5049423;28;20671;-78
2023/12/08 12:12:32;;;;;;;22.60;20.93;;;6.60;99.90;;;;;;5027975;28;20265;-78
2023/12/08 12:15:04;;;;;;;22.43;20.67;;;6.50;99.90;;;;;;5032211;28;20207;-77
2023/12/08 12:17:30;;;;;;;22.73;21.00;;;6.50;99.90;;;;;;5047703;28;20769;-77
2023/12/08 12:19:57;;;;;;;22.20;20.40;;;6.50;99.90;;;;;;5055523;28;20198;-77
2023/12/08 12:22:24;;;;;;;22.67;20.83;;;6.40;99.90;;;;;;5039314;28;20202;-79
2023/12/08 12:24:51;;;;;;;22.10;20.40;;;6.50;99.90;;;;;;5036037;28;20878;-78
2023/12/08 12:27:18;;;;;;;22.13;20.43;;;6.50;99.90;;;;;;5044576;28;20195;-77
2023/12/08 12:29:47;;;;;;;21.10;19.60;;;6.50;99.90;;;;;;5052112;28;20199;-77
2023/12/08 12:32:14;;;;;;;22.57;20.87;;;6.60;99.90;;;;;;5046164;28;20199;-78
2023/12/08 12:34:40;;;;;;;23.70;21.93;;;6.60;99.90;;;;;;5051311;28;20243;-77
2023/12/08 12:37:08;;;;;;;23.30;21.47;;;6.60;99.90;;;;;;5051727;28;20682;-77
2023/12/08 12:39:35;;;;;;;22.43;20.67;;;6.60;99.90;;;;;;5052840;28;20245;-77
2023/12/08 12:42:04;;;;;;;21.87;20.03;;;6.60;99.90;;;;;;5060651;28;20260;-77
2023/12/08 12:44:44;;;;;;;21.70;20.10;;;6.70;99.90;;;;;;5041588;28;20235;-77
2023/12/08 12:47:14;;;;;;;21.27;19.67;;;6.70;99.90;;;;;;5050516;28;20207;-77
2023/12/08 12:49:42;;;;;;;21.70;20.10;;;6.70;99.90;;;;;;5028371;28;20203;-78
2023/12/08 12:52:22;;;;;;;20.50;19.10;;;6.80;99.90;;;;;;5050734;28;20203;-78
2023/12/08 12:54:48;;;;;;;20.80;19.20;;;6.80;99.90;;;;;;5045477;28;20233;-77
2023/12/08 12:57:16;;;;;;;20.40;18.80;;;6.80;99.90;;;;;;5033078;28;20199;-81
2023/12/08 12:59:53;;;;;;;20.43;18.93;;;6.80;99.90;;;;;;5021865;28;20211;-80
2023/12/08 13:02:30;;;;;;;22.10;20.40;;;6.90;99.90;;;;;;5023148;28;20565;-79
2023/12/08 13:05:03;;;;;;;21.47;19.87;;;6.80;99.90;;;;;;5030978;28;20221;-80
2023/12/08 13:07:30;;;;;;;20.47;18.90;;;6.80;99.90;;;;;;5023206;28;20578;-80
2023/12/08 13:09:58;;;;;;;20.13;18.60;;;6.90;99.90;;;;;;5045857;28;20203;-80
2023/12/08 13:12:25;;;;;;;19.20;17.80;;;6.90;99.90;;;;;;5040118;28;20659;-80
2023/12/08 13:14:52;;;;;;;19.00;17.67;;;6.90;99.90;;;;;;5033695;28;20219;-80
2023/12/08 13:17:20;;;;;;;18.53;17.33;;;6.90;99.90;;;;;;5025054;28;20226;-80
2023/12/08 13:19:50;;;;;;;18.70;17.40;;;6.90;99.90;;;;;;5054801;28;20213;-79